Terminal Aerodrome Forecast
Issued by NWS Wilmington, OH

Current Version | Previous Version | Text Only | Print | Product List | Glossary Off
Versions: 1 2 3 4 5 6 7 8 9 10 11 12 13 14 15 16 17 18 19 20 21 22 23 24 25

975
FTUS41 KILN 162320
TAFCVG
TAF
KCVG 162320Z 1700/1806 VRB03KT P6SM BKN025
     FM171000 13003KT P6SM SCT025 SCT200
     FM171400 14008KT P6SM FEW020 BKN150
     FM171900 15010KT P6SM BKN150
     FM180200 18010KT P6SM SCT035 OVC100=

USA.gov is the U.S. government's official web portal to all federal, state and local government web resources and services.